sensor_id;sensor_type;location;lat;lon;timestamp;P1;durP1;ratioP1;P2;durP2;ratioP2
14381;SDS011;7275;50.328;8.720;2022-10-16T00:01:16;1.47;;;1.30;;
14381;SDS011;7275;50.328;8.720;2022-10-16T00:03:46;2.00;;;1.60;;
14381;SDS011;7275;50.328;8.720;2022-10-16T00:06:16;1.90;;;1.40;;
14381;SDS011;7275;50.328;8.720;2022-10-16T00:08:45;2.40;;;1.30;;
14381;SDS011;7275;50.328;8.720;2022-10-16T00:11:15;1.67;;;1.57;;
14381;SDS011;7275;50.328;8.720;2022-10-16T00:13:46;1.93;;;1.57;;
14381;SDS011;7275;50.328;8.720;2022-10-16T00:16:16;1.33;;;1.23;;
14381;SDS011;7275;50.328;8.720;2022-10-16T00:18:45;2.40;;;1.53;;
14381;SDS011;7275;50.328;8.720;2022-10-16T00:21:14;1.57;;;1.33;;
14381;SDS011;7275;50.328;8.720;2022-10-16T00:23:42;2.20;;;1.43;;
14381;SDS011;7275;50.328;8.720;2022-10-16T00:26:11;1.47;;;1.30;;
14381;SDS011;7275;50.328;8.720;2022-10-16T00:28:40;1.47;;;1.20;;
14381;SDS011;7275;50.328;8.720;2022-10-16T00:31:09;1.40;;;1.30;;
14381;SDS011;7275;50.328;8.720;2022-10-16T00:33:38;1.63;;;1.20;;
14381;SDS011;7275;50.328;8.720;2022-10-16T00:36:09;1.30;;;1.10;;
14381;SDS011;7275;50.328;8.720;2022-10-16T00:38:38;1.83;;;1.40;;
14381;SDS011;7275;50.328;8.720;2022-10-16T00:41:07;1.30;;;1.20;;
14381;SDS011;7275;50.328;8.720;2022-10-16T00:43:38;1.30;;;1.20;;
14381;SDS011;7275;50.328;8.720;2022-10-16T00:46:12;1.40;;;1.30;;
14381;SDS011;7275;50.328;8.720;2022-10-16T00:48:44;1.23;;;1.10;;
14381;SDS011;7275;50.328;8.720;2022-10-16T00:51:17;1.40;;;1.30;;
14381;SDS011;7275;50.328;8.720;2022-10-16T00:53:47;1.23;;;1.13;;
14381;SDS011;7275;50.328;8.720;2022-10-16T00:56:15;2.13;;;1.30;;
14381;SDS011;7275;50.328;8.720;2022-10-16T00:58:43;1.53;;;1.20;;
14381;SDS011;7275;50.328;8.720;2022-10-16T01:01:11;2.00;;;1.30;;
14381;SDS011;7275;50.328;8.720;2022-10-16T01:03:39;1.83;;;1.57;;
14381;SDS011;7275;50.328;8.720;2022-10-16T01:06:09;1.60;;;1.50;;
14381;SDS011;7275;50.328;8.720;2022-10-16T01:08:49;2.37;;;1.73;;
14381;SDS011;7275;50.328;8.720;2022-10-16T01:11:29;2.47;;;1.90;;
14381;SDS011;7275;50.328;8.720;2022-10-16T01:14:02;2.17;;;1.90;;
14381;SDS011;7275;50.328;8.720;2022-10-16T01:16:38;2.50;;;2.30;;
14381;SDS011;7275;50.328;8.720;2022-10-16T01:19:14;1.90;;;1.80;;
14381;SDS011;7275;50.328;8.720;2022-10-16T01:21:48;2.03;;;1.93;;
14381;SDS011;7275;50.328;8.720;2022-10-16T01:24:23;2.60;;;2.37;;
14381;SDS011;7275;50.328;8.720;2022-10-16T01:27:06;3.07;;;2.30;;
14381;SDS011;7275;50.328;8.720;2022-10-16T01:29:37;2.80;;;2.60;;
14381;SDS011;7275;50.328;8.720;2022-10-16T01:32:10;2.90;;;2.60;;
14381;SDS011;7275;50.328;8.720;2022-10-16T01:34:46;3.20;;;2.90;;
14381;SDS011;7275;50.328;8.720;2022-10-16T01:37:18;2.93;;;2.67;;
14381;SDS011;7275;50.328;8.720;2022-10-16T01:39:52;2.93;;;2.53;;
14381;SDS011;7275;50.328;8.720;2022-10-16T01:42:28;3.50;;;3.20;;
14381;SDS011;7275;50.328;8.720;2022-10-16T01:45:01;3.10;;;2.83;;
14381;SDS011;7275;50.328;8.720;2022-10-16T01:47:32;3.83;;;3.37;;
14381;SDS011;7275;50.328;8.720;2022-10-16T01:50:02;3.97;;;3.57;;
14381;SDS011;7275;50.328;8.720;2022-10-16T01:52:33;4.30;;;3.90;;
14381;SDS011;7275;50.328;8.720;2022-10-16T01:55:03;4.13;;;3.83;;
14381;SDS011;7275;50.328;8.720;2022-10-16T01:57:35;4.90;;;3.50;;
14381;SDS011;7275;50.328;8.720;2022-10-16T02:00:07;4.10;;;3.70;;
14381;SDS011;7275;50.328;8.720;2022-10-16T02:02:38;3.83;;;3.53;;
14381;SDS011;7275;50.328;8.720;2022-10-16T02:05:10;4.50;;;3.57;;
14381;SDS011;7275;50.328;8.720;2022-10-16T02:07:42;4.30;;;4.00;;
14381;SDS011;7275;50.328;8.720;2022-10-16T02:10:10;4.70;;;4.30;;
14381;SDS011;7275;50.328;8.720;2022-10-16T02:12:39;5.63;;;4.20;;
14381;SDS011;7275;50.328;8.720;2022-10-16T02:15:09;4.40;;;4.00;;
14381;SDS011;7275;50.328;8.720;2022-10-16T02:17:37;4.63;;;4.23;;
14381;SDS011;7275;50.328;8.720;2022-10-16T02:20:05;4.20;;;3.80;;
14381;SDS011;7275;50.328;8.720;2022-10-16T02:22:34;3.63;;;3.23;;
14381;SDS011;7275;50.328;8.720;2022-10-16T02:25:06;3.33;;;3.03;;
14381;SDS011;7275;50.328;8.720;2022-10-16T02:27:40;3.90;;;3.60;;
14381;SDS011;7275;50.328;8.720;2022-10-16T02:30:11;4.63;;;3.70;;
14381;SDS011;7275;50.328;8.720;2022-10-16T02:32:43;4.30;;;3.90;;
14381;SDS011;7275;50.328;8.720;2022-10-16T02:35:13;4.47;;;4.07;;
14381;SDS011;7275;50.328;8.720;2022-10-16T02:37:43;6.80;;;4.63;;
14381;SDS011;7275;50.328;8.720;2022-10-16T02:40:12;5.93;;;4.33;;
14381;SDS011;7275;50.328;8.720;2022-10-16T02:42:41;5.10;;;4.67;;
14381;SDS011;7275;50.328;8.720;2022-10-16T02:45:09;5.60;;;5.20;;
14381;SDS011;7275;50.328;8.720;2022-10-16T02:47:38;6.40;;;5.80;;
14381;SDS011;7275;50.328;8.720;2022-10-16T02:50:06;6.43;;;5.83;;
14381;SDS011;7275;50.328;8.720;2022-10-16T02:52:33;6.40;;;5.90;;
14381;SDS011;7275;50.328;8.720;2022-10-16T02:55:01;6.70;;;6.20;;
14381;SDS011;7275;50.328;8.720;2022-10-16T02:57:29;6.90;;;6.07;;
14381;SDS011;7275;50.328;8.720;2022-10-16T02:59:58;6.27;;;5.77;;
14381;SDS011;7275;50.328;8.720;2022-10-16T03:02:26;6.27;;;5.77;;
14381;SDS011;7275;50.328;8.720;2022-10-16T03:04:53;6.10;;;5.60;;
14381;SDS011;7275;50.328;8.720;2022-10-16T03:07:21;6.20;;;5.67;;
14381;SDS011;7275;50.328;8.720;2022-10-16T03:09:49;6.07;;;5.57;;
14381;SDS011;7275;50.328;8.720;2022-10-16T03:12:16;6.23;;;5.63;;
14381;SDS011;7275;50.328;8.720;2022-10-16T03:14:43;5.17;;;4.77;;
14381;SDS011;7275;50.328;8.720;2022-10-16T03:17:12;5.50;;;5.10;;
14381;SDS011;7275;50.328;8.720;2022-10-16T03:19:43;5.60;;;5.13;;
14381;SDS011;7275;50.328;8.720;2022-10-16T03:22:10;5.67;;;5.27;;
14381;SDS011;7275;50.328;8.720;2022-10-16T03:24:38;5.30;;;4.90;;
14381;SDS011;7275;50.328;8.720;2022-10-16T03:27:05;5.43;;;4.93;;
14381;SDS011;7275;50.328;8.720;2022-10-16T03:29:32;5.50;;;5.00;;
14381;SDS011;7275;50.328;8.720;2022-10-16T03:32:00;4.47;;;4.17;;
14381;SDS011;7275;50.328;8.720;2022-10-16T03:34:29;4.30;;;4.00;;
14381;SDS011;7275;50.328;8.720;2022-10-16T03:36:57;4.77;;;4.37;;
14381;SDS011;7275;50.328;8.720;2022-10-16T03:39:24;4.53;;;4.17;;
14381;SDS011;7275;50.328;8.720;2022-10-16T03:41:53;4.00;;;3.70;;
14381;SDS011;7275;50.328;8.720;2022-10-16T03:44:20;4.20;;;3.90;;
14381;SDS011;7275;50.328;8.720;2022-10-16T03:46:48;4.57;;;4.17;;
14381;SDS011;7275;50.328;8.720;2022-10-16T03:49:15;4.20;;;3.90;;
14381;SDS011;7275;50.328;8.720;2022-10-16T03:51:44;4.20;;;3.90;;
14381;SDS011;7275;50.328;8.720;2022-10-16T03:54:12;4.47;;;4.17;;
14381;SDS011;7275;50.328;8.720;2022-10-16T03:56:39;3.57;;;3.37;;
14381;SDS011;7275;50.328;8.720;2022-10-16T03:59:07;4.17;;;3.20;;
14381;SDS011;7275;50.328;8.720;2022-10-16T04:01:34;3.33;;;3.13;;
14381;SDS011;7275;50.328;8.720;2022-10-16T04:04:02;3.40;;;3.20;;
14381;SDS011;7275;50.328;8.720;2022-10-16T04:06:29;3.63;;;3.33;;
14381;SDS011;7275;50.328;8.720;2022-10-16T04:08:58;3.60;;;3.30;;
14381;SDS011;7275;50.328;8.720;2022-10-16T04:11:26;3.57;;;3.37;;
14381;SDS011;7275;50.328;8.720;2022-10-16T04:13:53;3.87;;;3.57;;
14381;SDS011;7275;50.328;8.720;2022-10-16T04:16:21;3.83;;;3.53;;
14381;SDS011;7275;50.328;8.720;2022-10-16T04:18:48;3.80;;;3.50;;
14381;SDS011;7275;50.328;8.720;2022-10-16T04:21:16;7.33;;;3.57;;
14381;SDS011;7275;50.328;8.720;2022-10-16T04:23:43;4.27;;;3.87;;
14381;SDS011;7275;50.328;8.720;2022-10-16T04:26:12;3.33;;;3.13;;
14381;SDS011;7275;50.328;8.720;2022-10-16T04:28:40;3.80;;;3.50;;
14381;SDS011;7275;50.328;8.720;2022-10-16T04:31:07;2.60;;;2.40;;
14381;SDS011;7275;50.328;8.720;2022-10-16T04:33:35;1.77;;;1.67;;
14381;SDS011;7275;50.328;8.720;2022-10-16T04:36:02;1.50;;;1.40;;
14381;SDS011;7275;50.328;8.720;2022-10-16T04:38:31;2.43;;;1.30;;
14381;SDS011;7275;50.328;8.720;2022-10-16T04:40:58;3.37;;;1.40;;
14381;SDS011;7275;50.328;8.720;2022-10-16T04:43:27;2.60;;;1.43;;
14381;SDS011;7275;50.328;8.720;2022-10-16T04:45:55;1.33;;;1.23;;
14381;SDS011;7275;50.328;8.720;2022-10-16T04:48:22;1.13;;;1.10;;
14381;SDS011;7275;50.328;8.720;2022-10-16T04:50:50;2.73;;;1.30;;
14381;SDS011;7275;50.328;8.720;2022-10-16T04:53:20;1.60;;;1.50;;
14381;SDS011;7275;50.328;8.720;2022-10-16T04:55:48;1.40;;;1.30;;
14381;SDS011;7275;50.328;8.720;2022-10-16T04:58:15;1.57;;;1.40;;
14381;SDS011;7275;50.328;8.720;2022-10-16T05:00:44;1.57;;;1.47;;
14381;SDS011;7275;50.328;8.720;2022-10-16T05:03:13;2.27;;;1.80;;
14381;SDS011;7275;50.328;8.720;2022-10-16T05:05:42;3.23;;;2.30;;
14381;SDS011;7275;50.328;8.720;2022-10-16T05:08:09;5.20;;;2.60;;
14381;SDS011;7275;50.328;8.720;2022-10-16T05:10:37;2.50;;;2.30;;
14381;SDS011;7275;50.328;8.720;2022-10-16T05:13:04;2.50;;;2.30;;
14381;SDS011;7275;50.328;8.720;2022-10-16T05:15:32;3.47;;;2.67;;
14381;SDS011;7275;50.328;8.720;2022-10-16T05:18:01;3.27;;;2.57;;
14381;SDS011;7275;50.328;8.720;2022-10-16T05:20:28;2.93;;;2.73;;
14381;SDS011;7275;50.328;8.720;2022-10-16T05:22:56;2.80;;;2.50;;
14381;SDS011;7275;50.328;8.720;2022-10-16T05:25:24;2.80;;;2.60;;
14381;SDS011;7275;50.328;8.720;2022-10-16T05:27:51;2.73;;;2.53;;
14381;SDS011;7275;50.328;8.720;2022-10-16T05:30:19;3.50;;;2.63;;
14381;SDS011;7275;50.328;8.720;2022-10-16T05:32:47;2.93;;;2.73;;
14381;SDS011;7275;50.328;8.720;2022-10-16T05:35:17;2.90;;;2.67;;
14381;SDS011;7275;50.328;8.720;2022-10-16T05:37:45;2.70;;;2.50;;
14381;SDS011;7275;50.328;8.720;2022-10-16T05:40:13;2.80;;;2.60;;
14381;SDS011;7275;50.328;8.720;2022-10-16T05:42:42;2.80;;;2.60;;
14381;SDS011;7275;50.328;8.720;2022-10-16T05:45:10;2.73;;;2.53;;
14381;SDS011;7275;50.328;8.720;2022-10-16T05:47:38;2.40;;;2.20;;
14381;SDS011;7275;50.328;8.720;2022-10-16T05:50:07;2.80;;;2.60;;
14381;SDS011;7275;50.328;8.720;2022-10-16T05:52:36;2.70;;;2.50;;
14381;SDS011;7275;50.328;8.720;2022-10-16T05:55:04;2.27;;;2.07;;
14381;SDS011;7275;50.328;8.720;2022-10-16T05:57:32;3.13;;;2.10;;
14381;SDS011;7275;50.328;8.720;2022-10-16T05:59:59;2.73;;;2.53;;
14381;SDS011;7275;50.328;8.720;2022-10-16T06:02:27;2.33;;;2.20;;
14381;SDS011;7275;50.328;8.720;2022-10-16T06:04:54;2.40;;;2.20;;
14381;SDS011;7275;50.328;8.720;2022-10-16T06:07:22;2.73;;;2.20;;
14381;SDS011;7275;50.328;8.720;2022-10-16T06:09:52;2.40;;;2.20;;
14381;SDS011;7275;50.328;8.720;2022-10-16T06:12:20;2.13;;;2.03;;
14381;SDS011;7275;50.328;8.720;2022-10-16T06:14:47;2.83;;;1.90;;
14381;SDS011;7275;50.328;8.720;2022-10-16T06:17:15;2.03;;;1.93;;
14381;SDS011;7275;50.328;8.720;2022-10-16T06:19:42;2.57;;;1.90;;
14381;SDS011;7275;50.328;8.720;2022-10-16T06:22:10;2.10;;;1.90;;
14381;SDS011;7275;50.328;8.720;2022-10-16T06:24:38;2.07;;;1.90;;
14381;SDS011;7275;50.328;8.720;2022-10-16T06:27:07;1.90;;;1.70;;
14381;SDS011;7275;50.328;8.720;2022-10-16T06:29:34;1.83;;;1.63;;
14381;SDS011;7275;50.328;8.720;2022-10-16T06:32:02;2.90;;;1.70;;
14381;SDS011;7275;50.328;8.720;2022-10-16T06:34:29;2.27;;;1.43;;
14381;SDS011;7275;50.328;8.720;2022-10-16T06:36:57;1.77;;;1.40;;
14381;SDS011;7275;50.328;8.720;2022-10-16T06:39:24;1.47;;;1.37;;
14381;SDS011;7275;50.328;8.720;2022-10-16T06:41:52;2.13;;;1.40;;
14381;SDS011;7275;50.328;8.720;2022-10-16T06:44:21;1.73;;;1.40;;
14381;SDS011;7275;50.328;8.720;2022-10-16T06:46:48;2.30;;;1.60;;
14381;SDS011;7275;50.328;8.720;2022-10-16T06:49:16;2.00;;;1.40;;
14381;SDS011;7275;50.328;8.720;2022-10-16T06:51:48;1.60;;;1.50;;
14381;SDS011;7275;50.328;8.720;2022-10-16T06:54:15;1.80;;;1.37;;
14381;SDS011;7275;50.328;8.720;2022-10-16T06:56:43;2.77;;;1.80;;
14381;SDS011;7275;50.328;8.720;2022-10-16T06:59:11;1.70;;;1.60;;
14381;SDS011;7275;50.328;8.720;2022-10-16T07:01:40;3.83;;;1.70;;
14381;SDS011;7275;50.328;8.720;2022-10-16T07:04:08;1.70;;;1.60;;
14381;SDS011;7275;50.328;8.720;2022-10-16T07:06:35;2.00;;;1.80;;
14381;SDS011;7275;50.328;8.720;2022-10-16T07:09:03;4.90;;;1.93;;
14381;SDS011;7275;50.328;8.720;2022-10-16T07:11:32;2.70;;;2.00;;
14381;SDS011;7275;50.328;8.720;2022-10-16T07:14:00;1.93;;;1.80;;
14381;SDS011;7275;50.328;8.720;2022-10-16T07:16:28;1.60;;;1.50;;
14381;SDS011;7275;50.328;8.720;2022-10-16T07:18:59;1.67;;;1.57;;
14381;SDS011;7275;50.328;8.720;2022-10-16T07:21:28;1.60;;;1.50;;
14381;SDS011;7275;50.328;8.720;2022-10-16T07:23:58;1.73;;;1.63;;
14381;SDS011;7275;50.328;8.720;2022-10-16T07:26:27;2.27;;;1.70;;
14381;SDS011;7275;50.328;8.720;2022-10-16T07:28:56;1.83;;;1.60;;
14381;SDS011;7275;50.328;8.720;2022-10-16T07:31:24;2.67;;;1.67;;
14381;SDS011;7275;50.328;8.720;2022-10-16T07:33:52;2.70;;;1.80;;
14381;SDS011;7275;50.328;8.720;2022-10-16T07:36:22;1.60;;;1.47;;
14381;SDS011;7275;50.328;8.720;2022-10-16T07:38:50;3.67;;;1.50;;
14381;SDS011;7275;50.328;8.720;2022-10-16T07:41:22;1.70;;;1.60;;
14381;SDS011;7275;50.328;8.720;2022-10-16T07:43:50;2.30;;;1.50;;
14381;SDS011;7275;50.328;8.720;2022-10-16T07:46:20;3.10;;;1.47;;
14381;SDS011;7275;50.328;8.720;2022-10-16T07:48:49;2.17;;;1.47;;
14381;SDS011;7275;50.328;8.720;2022-10-16T07:51:17;1.87;;;1.50;;
14381;SDS011;7275;50.328;8.720;2022-10-16T07:53:47;1.40;;;1.30;;
14381;SDS011;7275;50.328;8.720;2022-10-16T07:56:15;1.70;;;1.60;;
14381;SDS011;7275;50.328;8.720;2022-10-16T07:58:44;1.50;;;1.40;;
14381;SDS011;7275;50.328;8.720;2022-10-16T08:01:13;2.00;;;1.53;;
14381;SDS011;7275;50.328;8.720;2022-10-16T08:03:42;4.47;;;1.60;;
14381;SDS011;7275;50.328;8.720;2022-10-16T08:06:10;1.77;;;1.40;;
14381;SDS011;7275;50.328;8.720;2022-10-16T08:08:38;1.50;;;1.40;;
14381;SDS011;7275;50.328;8.720;2022-10-16T08:11:07;3.73;;;1.40;;
14381;SDS011;7275;50.328;8.720;2022-10-16T08:13:35;1.30;;;1.20;;
14381;SDS011;7275;50.328;8.720;2022-10-16T08:16:02;1.37;;;1.27;;
14381;SDS011;7275;50.328;8.720;2022-10-16T08:18:33;1.50;;;1.40;;
14381;SDS011;7275;50.328;8.720;2022-10-16T08:21:02;1.70;;;1.37;;
14381;SDS011;7275;50.328;8.720;2022-10-16T08:23:30;1.97;;;1.50;;
14381;SDS011;7275;50.328;8.720;2022-10-16T08:26:01;1.53;;;1.43;;
14381;SDS011;7275;50.328;8.720;2022-10-16T08:28:31;1.67;;;1.40;;
14381;SDS011;7275;50.328;8.720;2022-10-16T08:31:06;1.47;;;1.33;;
14381;SDS011;7275;50.328;8.720;2022-10-16T08:33:35;1.53;;;1.43;;
14381;SDS011;7275;50.328;8.720;2022-10-16T08:36:03;1.57;;;1.20;;
14381;SDS011;7275;50.328;8.720;2022-10-16T08:38:32;2.13;;;1.50;;
14381;SDS011;7275;50.328;8.720;2022-10-16T08:41:02;1.53;;;1.43;;
14381;SDS011;7275;50.328;8.720;2022-10-16T08:43:47;1.50;;;1.30;;
14381;SDS011;7275;50.328;8.720;2022-10-16T08:46:31;1.63;;;1.27;;
14381;SDS011;7275;50.328;8.720;2022-10-16T08:49:13;1.57;;;1.47;;
14381;SDS011;7275;50.328;8.720;2022-10-16T08:51:41;1.40;;;1.20;;
14381;SDS011;7275;50.328;8.720;2022-10-16T08:54:14;3.10;;;1.40;;
14381;SDS011;7275;50.328;8.720;2022-10-16T08:56:49;1.47;;;1.37;;
14381;SDS011;7275;50.328;8.720;2022-10-16T08:59:18;2.00;;;1.40;;
14381;SDS011;7275;50.328;8.720;2022-10-16T09:01:47;1.40;;;1.30;;
14381;SDS011;7275;50.328;8.720;2022-10-16T09:04:30;1.97;;;1.37;;
14381;SDS011;7275;50.328;8.720;2022-10-16T09:07:12;2.10;;;1.50;;
14381;SDS011;7275;50.328;8.720;2022-10-16T09:09:51;2.00;;;1.40;;
14381;SDS011;7275;50.328;8.720;2022-10-16T09:12:30;1.40;;;1.30;;
14381;SDS011;7275;50.328;8.720;2022-10-16T09:15:11;1.40;;;1.30;;
14381;SDS011;7275;50.328;8.720;2022-10-16T09:17:49;1.30;;;1.20;;
14381;SDS011;7275;50.328;8.720;2022-10-16T09:20:26;1.27;;;1.17;;
14381;SDS011;7275;50.328;8.720;2022-10-16T09:23:16;1.60;;;1.10;;
14381;SDS011;7275;50.328;8.720;2022-10-16T09:25:46;1.60;;;1.30;;
14381;SDS011;7275;50.328;8.720;2022-10-16T09:28:16;1.30;;;1.20;;
14381;SDS011;7275;50.328;8.720;2022-10-16T09:30:45;2.90;;;1.30;;
14381;SDS011;7275;50.328;8.720;2022-10-16T09:33:14;1.23;;;1.13;;
14381;SDS011;7275;50.328;8.720;2022-10-16T09:35:43;2.33;;;1.50;;
14381;SDS011;7275;50.328;8.720;2022-10-16T09:38:23;2.47;;;1.30;;
14381;SDS011;7275;50.328;8.720;2022-10-16T09:40:54;1.27;;;1.17;;
14381;SDS011;7275;50.328;8.720;2022-10-16T09:43:28;2.17;;;1.40;;
14381;SDS011;7275;50.328;8.720;2022-10-16T09:46:04;1.50;;;1.40;;
14381;SDS011;7275;50.328;8.720;2022-10-16T09:48:34;1.80;;;1.60;;
14381;SDS011;7275;50.328;8.720;2022-10-16T09:51:05;2.33;;;1.60;;
14381;SDS011;7275;50.328;8.720;2022-10-16T09:53:43;1.87;;;1.40;;
14381;SDS011;7275;50.328;8.720;2022-10-16T09:56:20;2.60;;;1.80;;
14381;SDS011;7275;50.328;8.720;2022-10-16T09:58:49;1.90;;;1.70;;
14381;SDS011;7275;50.328;8.720;2022-10-16T10:01:19;1.80;;;1.70;;
14381;SDS011;7275;50.328;8.720;2022-10-16T10:03:48;1.70;;;1.60;;
14381;SDS011;7275;50.328;8.720;2022-10-16T10:06:21;1.87;;;1.77;;
14381;SDS011;7275;50.328;8.720;2022-10-16T10:08:55;1.70;;;1.60;;
14381;SDS011;7275;50.328;8.720;2022-10-16T10:11:42;2.63;;;1.77;;
14381;SDS011;7275;50.328;8.720;2022-10-16T10:14:17;2.13;;;1.63;;
14381;SDS011;7275;50.328;8.720;2022-10-16T10:16:48;2.27;;;1.70;;
14381;SDS011;7275;50.328;8.720;2022-10-16T10:19:18;1.83;;;1.50;;
14381;SDS011;7275;50.328;8.720;2022-10-16T10:21:47;2.20;;;1.50;;
14381;SDS011;7275;50.328;8.720;2022-10-16T10:24:16;1.73;;;1.63;;
14381;SDS011;7275;50.328;8.720;2022-10-16T10:26:50;1.70;;;1.60;;
14381;SDS011;7275;50.328;8.720;2022-10-16T10:29:33;2.23;;;1.93;;
14381;SDS011;7275;50.328;8.720;2022-10-16T10:32:15;1.90;;;1.70;;
14381;SDS011;7275;50.328;8.720;2022-10-16T10:34:54;2.10;;;1.70;;
14381;SDS011;7275;50.328;8.720;2022-10-16T10:37:36;1.70;;;1.60;;
14381;SDS011;7275;50.328;8.720;2022-10-16T10:40:17;2.20;;;2.00;;
14381;SDS011;7275;50.328;8.720;2022-10-16T10:42:57;2.83;;;1.70;;
14381;SDS011;7275;50.328;8.720;2022-10-16T10:45:36;1.90;;;1.80;;
14381;SDS011;7275;50.328;8.720;2022-10-16T10:48:18;2.30;;;1.80;;
14381;SDS011;7275;50.328;8.720;2022-10-16T10:51:00;1.70;;;1.60;;
14381;SDS011;7275;50.328;8.720;2022-10-16T10:53:35;2.53;;;1.70;;
14381;SDS011;7275;50.328;8.720;2022-10-16T10:56:14;3.43;;;1.80;;
14381;SDS011;7275;50.328;8.720;2022-10-16T10:58:56;3.17;;;1.80;;
14381;SDS011;7275;50.328;8.720;2022-10-16T11:01:37;2.27;;;1.73;;
14381;SDS011;7275;50.328;8.720;2022-10-16T11:07:15;2.25;;;1.80;;
14381;SDS011;7275;50.328;8.720;2022-10-16T11:09:48;2.75;;;1.70;;
14381;SDS011;7275;50.328;8.720;2022-10-16T11:12:20;1.75;;;1.58;;
14381;SDS011;7275;50.328;8.720;2022-10-16T11:14:54;1.95;;;1.63;;
14381;SDS011;7275;50.328;8.720;2022-10-16T11:17:29;1.80;;;1.38;;
14381;SDS011;7275;50.328;8.720;2022-10-16T11:20:03;1.50;;;1.38;;
14381;SDS011;7275;50.328;8.720;2022-10-16T11:22:41;1.90;;;1.27;;
14381;SDS011;7275;50.328;8.720;2022-10-16T11:25:14;2.00;;;1.40;;
14381;SDS011;7275;50.328;8.720;2022-10-16T11:27:47;1.30;;;1.20;;
14381;SDS011;7275;50.328;8.720;2022-10-16T11:30:20;1.55;;;1.30;;
14381;SDS011;7275;50.328;8.720;2022-10-16T11:32:52;1.63;;;1.40;;
14381;SDS011;7275;50.328;8.720;2022-10-16T11:35:34;1.75;;;1.30;;
14381;SDS011;7275;50.328;8.720;2022-10-16T11:38:09;1.92;;;1.55;;
14381;SDS011;7275;50.328;8.720;2022-10-16T11:40:42;2.85;;;1.35;;
14381;SDS011;7275;50.328;8.720;2022-10-16T11:43:15;2.17;;;1.35;;
14381;SDS011;7275;50.328;8.720;2022-10-16T11:45:49;1.65;;;1.23;;
14381;SDS011;7275;50.328;8.720;2022-10-16T11:48:22;1.67;;;1.10;;
14381;SDS011;7275;50.328;8.720;2022-10-16T11:50:56;1.40;;;1.30;;
14381;SDS011;7275;50.328;8.720;2022-10-16T11:53:35;1.50;;;1.40;;
14381;SDS011;7275;50.328;8.720;2022-10-16T11:56:11;1.50;;;1.38;;
14381;SDS011;7275;50.328;8.720;2022-10-16T11:58:41;1.40;;;1.30;;
14381;SDS011;7275;50.328;8.720;2022-10-16T12:01:15;2.17;;;1.40;;
14381;SDS011;7275;50.328;8.720;2022-10-16T12:03:48;1.60;;;1.30;;
14381;SDS011;7275;50.328;8.720;2022-10-16T12:06:32;2.50;;;1.25;;
14381;SDS011;7275;50.328;8.720;2022-10-16T12:09:04;1.20;;;1.10;;
14381;SDS011;7275;50.328;8.720;2022-10-16T12:11:34;2.40;;;1.20;;
14381;SDS011;7275;50.328;8.720;2022-10-16T12:14:16;1.40;;;1.30;;
14381;SDS011;7275;50.328;8.720;2022-10-16T12:16:51;1.20;;;1.10;;
14381;SDS011;7275;50.328;8.720;2022-10-16T12:19:21;1.20;;;1.10;;
14381;SDS011;7275;50.328;8.720;2022-10-16T12:21:52;2.95;;;1.40;;
14381;SDS011;7275;50.328;8.720;2022-10-16T12:24:28;1.58;;;1.02;;
14381;SDS011;7275;50.328;8.720;2022-10-16T12:26:59;1.33;;;1.20;;
14381;SDS011;7275;50.328;8.720;2022-10-16T12:29:33;2.78;;;1.10;;
14381;SDS011;7275;50.328;8.720;2022-10-16T12:32:03;1.38;;;1.17;;
14381;SDS011;7275;50.328;8.720;2022-10-16T12:34:37;1.48;;;1.15;;
14381;SDS011;7275;50.328;8.720;2022-10-16T12:37:09;1.20;;;1.10;;
14381;SDS011;7275;50.328;8.720;2022-10-16T12:39:39;1.23;;;1.00;;
14381;SDS011;7275;50.328;8.720;2022-10-16T12:42:22;1.10;;;1.10;;
14381;SDS011;7275;50.328;8.720;2022-10-16T12:44:57;1.00;;;1.00;;
14381;SDS011;7275;50.328;8.720;2022-10-16T12:47:35;1.20;;;1.10;;
14381;SDS011;7275;50.328;8.720;2022-10-16T12:52:53;2.13;;;1.25;;
14381;SDS011;7275;50.328;8.720;2022-10-16T12:55:21;1.50;;;1.40;;
14381;SDS011;7275;50.328;8.720;2022-10-16T12:57:59;1.40;;;1.30;;
14381;SDS011;7275;50.328;8.720;2022-10-16T13:00:35;1.40;;;1.30;;
14381;SDS011;7275;50.328;8.720;2022-10-16T13:03:25;1.70;;;1.60;;
14381;SDS011;7275;50.328;8.720;2022-10-16T13:06:06;2.45;;;1.42;;
14381;SDS011;7275;50.328;8.720;2022-10-16T13:08:46;1.50;;;1.40;;
14381;SDS011;7275;50.328;8.720;2022-10-16T13:11:25;2.75;;;1.40;;
14381;SDS011;7275;50.328;8.720;2022-10-16T13:14:18;1.40;;;1.30;;
14381;SDS011;7275;50.328;8.720;2022-10-16T13:17:11;1.50;;;1.40;;
14381;SDS011;7275;50.328;8.720;2022-10-16T13:19:48;1.40;;;1.30;;
14381;SDS011;7275;50.328;8.720;2022-10-16T13:22:22;2.13;;;1.30;;
14381;SDS011;7275;50.328;8.720;2022-10-16T13:25:01;1.42;;;1.30;;
14381;SDS011;7275;50.328;8.720;2022-10-16T13:27:41;1.27;;;1.17;;
14381;SDS011;7275;50.328;8.720;2022-10-16T13:30:18;1.20;;;1.10;;
14381;SDS011;7275;50.328;8.720;2022-10-16T13:32:56;1.77;;;1.25;;
14381;SDS011;7275;50.328;8.720;2022-10-16T13:35:30;1.20;;;1.13;;
14381;SDS011;7275;50.328;8.720;2022-10-16T13:38:03;1.35;;;1.02;;
14381;SDS011;7275;50.328;8.720;2022-10-16T13:40:49;1.23;;;1.13;;
14381;SDS011;7275;50.328;8.720;2022-10-16T13:43:19;1.20;;;1.10;;
14381;SDS011;7275;50.328;8.720;2022-10-16T13:45:53;1.52;;;1.30;;
14381;SDS011;7275;50.328;8.720;2022-10-16T13:48:24;1.10;;;1.00;;
14381;SDS011;7275;50.328;8.720;2022-10-16T13:50:59;1.10;;;1.10;;
14381;SDS011;7275;50.328;8.720;2022-10-16T13:53:29;2.00;;;1.10;;
14381;SDS011;7275;50.328;8.720;2022-10-16T13:56:00;1.23;;;1.13;;
14381;SDS011;7275;50.328;8.720;2022-10-16T13:58:30;1.20;;;1.10;;
14381;SDS011;7275;50.328;8.720;2022-10-16T14:00:58;2.17;;;1.00;;
14381;SDS011;7275;50.328;8.720;2022-10-16T14:03:28;1.25;;;1.15;;
14381;SDS011;7275;50.328;8.720;2022-10-16T14:05:58;1.30;;;1.20;;
14381;SDS011;7275;50.328;8.720;2022-10-16T14:08:29;1.38;;;1.13;;
14381;SDS011;7275;50.328;8.720;2022-10-16T14:10:58;1.63;;;1.10;;
14381;SDS011;7275;50.328;8.720;2022-10-16T14:13:31;1.10;;;1.00;;
14381;SDS011;7275;50.328;8.720;2022-10-16T14:16:05;1.52;;;1.10;;
14381;SDS011;7275;50.328;8.720;2022-10-16T14:18:36;1.20;;;1.10;;
14381;SDS011;7275;50.328;8.720;2022-10-16T14:21:06;1.30;;;1.20;;
14381;SDS011;7275;50.328;8.720;2022-10-16T14:23:38;2.17;;;1.20;;
14381;SDS011;7275;50.328;8.720;2022-10-16T14:26:15;1.20;;;1.10;;
14381;SDS011;7275;50.328;8.720;2022-10-16T14:28:46;1.00;;;1.00;;
14381;SDS011;7275;50.328;8.720;2022-10-16T14:31:25;1.30;;;1.20;;
14381;SDS011;7275;50.328;8.720;2022-10-16T14:33:54;1.30;;;1.20;;
14381;SDS011;7275;50.328;8.720;2022-10-16T14:36:22;1.20;;;1.10;;
14381;SDS011;7275;50.328;8.720;2022-10-16T14:38:56;1.30;;;1.20;;
14381;SDS011;7275;50.328;8.720;2022-10-16T14:41:29;1.45;;;1.20;;
14381;SDS011;7275;50.328;8.720;2022-10-16T14:43:58;1.40;;;1.30;;
14381;SDS011;7275;50.328;8.720;2022-10-16T14:46:31;1.38;;;1.25;;
14381;SDS011;7275;50.328;8.720;2022-10-16T14:49:05;2.38;;;1.40;;
14381;SDS011;7275;50.328;8.720;2022-10-16T14:51:43;1.60;;;1.50;;
14381;SDS011;7275;50.328;8.720;2022-10-16T14:54:11;1.80;;;1.40;;
14381;SDS011;7275;50.328;8.720;2022-10-16T14:56:46;1.30;;;1.10;;
14381;SDS011;7275;50.328;8.720;2022-10-16T14:59:17;1.33;;;1.20;;
14381;SDS011;7275;50.328;8.720;2022-10-16T15:01:47;1.35;;;1.25;;
14381;SDS011;7275;50.328;8.720;2022-10-16T15:04:15;1.30;;;1.20;;
14381;SDS011;7275;50.328;8.720;2022-10-16T15:06:44;1.77;;;1.40;;
14381;SDS011;7275;50.328;8.720;2022-10-16T15:09:11;1.60;;;1.30;;
14381;SDS011;7275;50.328;8.720;2022-10-16T15:11:39;1.23;;;1.13;;
14381;SDS011;7275;50.328;8.720;2022-10-16T15:14:09;3.85;;;1.17;;
14381;SDS011;7275;50.328;8.720;2022-10-16T15:16:43;1.02;;;1.02;;
14381;SDS011;7275;50.328;8.720;2022-10-16T15:19:11;1.30;;;1.20;;
14381;SDS011;7275;50.328;8.720;2022-10-16T15:21:39;1.63;;;1.30;;
14381;SDS011;7275;50.328;8.720;2022-10-16T15:24:08;1.00;;;1.00;;
14381;SDS011;7275;50.328;8.720;2022-10-16T15:26:44;1.30;;;1.00;;
14381;SDS011;7275;50.328;8.720;2022-10-16T15:29:14;1.40;;;1.10;;
14381;SDS011;7275;50.328;8.720;2022-10-16T15:31:42;1.00;;;0.90;;